Time;durP1;ratioP1;P1;durP2;ratioP2;P2;SDS_P1;SDS_P2;PMS_P1;PMS_P2;Temp;Humidity;BMP_temperature;BMP_pressure;BME280_temperature;BME280_humidity;BME280_pressure;Samples;Min_cycle;Max_cycle;Signal;HPM_P1;HPM_P2
2021/03/10 00:02:20;;;;;;;19.80;7.13;;;3.00;57.80;;;;;;5065920;28;20040;-63
2021/03/10 00:05:04;;;;;;;20.10;6.57;;;3.00;57.50;;;;;;5050734;28;20060;-62
2021/03/10 00:07:31;;;;;;;24.38;8.32;;;3.00;58.10;;;;;;5069337;28;20068;-63
2021/03/10 00:09:57;;;;;;;20.23;7.93;;;3.00;57.60;;;;;;5053438;28;22192;-62
2021/03/10 00:12:24;;;;;;;19.90;7.13;;;3.00;58.50;;;;;;5064309;28;20044;-62
2021/03/10 00:14:50;;;;;;;15.68;6.72;;;3.00;59.40;;;;;;5061904;28;20048;-62
2021/03/10 00:17:17;;;;;;;21.25;6.50;;;3.00;59.60;;;;;;5054183;28;20044;-63
2021/03/10 00:19:43;;;;;;;17.08;7.30;;;2.90;58.00;;;;;;5071673;28;20039;-62
2021/03/10 00:22:11;;;;;;;13.52;5.50;;;2.90;57.80;;;;;;5061830;28;20059;-62
2021/03/10 00:24:37;;;;;;;8.32;4.53;;;2.90;57.70;;;;;;5055984;28;20039;-61
2021/03/10 00:27:05;;;;;;;15.80;5.85;;;2.80;57.80;;;;;;5070610;28;20098;-62
2021/03/10 00:29:32;;;;;;;16.77;6.15;;;2.80;58.50;;;;;;5077942;28;20060;-63
2021/03/10 00:31:58;;;;;;;16.58;5.78;;;2.80;58.70;;;;;;5071400;28;20040;-62
2021/03/10 00:34:25;;;;;;;16.50;5.88;;;2.80;58.80;;;;;;5044534;28;20044;-61
2021/03/10 00:36:52;;;;;;;18.08;6.10;;;2.80;59.00;;;;;;5061007;28;20060;-62
2021/03/10 00:39:18;;;;;;;17.50;5.85;;;2.70;59.00;;;;;;5060504;28;20526;-62
2021/03/10 00:41:45;;;;;;;18.05;6.68;;;2.70;59.20;;;;;;5065817;28;20056;-64
2021/03/10 00:44:11;;;;;;;16.05;5.60;;;2.70;59.30;;;;;;5083895;28;20097;-62
2021/03/10 00:46:38;;;;;;;20.67;6.35;;;2.70;59.70;;;;;;5066432;28;20033;-61
2021/03/10 00:49:05;;;;;;;13.30;5.50;;;2.70;59.20;;;;;;5058102;28;20037;-62
2021/03/10 00:51:32;;;;;;;17.23;6.80;;;2.70;59.50;;;;;;5069018;28;20036;-63
2021/03/10 00:53:58;;;;;;;15.00;5.90;;;2.70;60.10;;;;;;5060761;28;20462;-62
2021/03/10 00:56:25;;;;;;;12.88;5.47;;;2.70;59.80;;;;;;5063745;28;20044;-63
2021/03/10 00:58:51;;;;;;;17.98;6.60;;;2.70;59.80;;;;;;5046030;28;20110;-62
2021/03/10 01:01:18;;;;;;;14.48;6.00;;;2.70;59.80;;;;;;5047303;28;20403;-62
2021/03/10 01:03:44;;;;;;;15.98;6.25;;;2.70;59.60;;;;;;5049702;28;20123;-62
2021/03/10 01:06:11;;;;;;;19.55;5.82;;;2.70;59.50;;;;;;5051614;28;20089;-62
2021/03/10 01:08:38;;;;;;;15.63;6.00;;;2.60;59.40;;;;;;5051932;28;21101;-62
2021/03/10 01:11:04;;;;;;;15.20;6.22;;;2.70;60.20;;;;;;5055907;28;20052;-61
2021/03/10 01:13:31;;;;;;;16.63;6.00;;;2.60;59.80;;;;;;5042250;28;20048;-62
2021/03/10 01:15:57;;;;;;;11.77;5.60;;;2.60;60.00;;;;;;5067935;28;20060;-63
2021/03/10 01:18:24;;;;;;;14.05;6.10;;;2.60;60.40;;;;;;5068603;28;20534;-62
2021/03/10 01:20:50;;;;;;;15.63;5.63;;;2.60;60.60;;;;;;5046758;28;20569;-63
2021/03/10 01:23:17;;;;;;;18.83;6.95;;;2.60;60.70;;;;;;5049725;28;20189;-63
2021/03/10 01:25:43;;;;;;;18.58;6.32;;;2.50;60.40;;;;;;5040889;28;20124;-62
2021/03/10 01:28:10;;;;;;;18.00;7.88;;;2.50;60.60;;;;;;5051285;28;20506;-62
2021/03/10 01:30:36;;;;;;;17.88;6.32;;;2.50;61.10;;;;;;5079713;28;20117;-62
2021/03/10 01:33:03;;;;;;;20.30;6.65;;;2.50;61.60;;;;;;5068352;28;20049;-62
2021/03/10 01:35:30;;;;;;;13.10;5.28;;;2.40;61.30;;;;;;5065035;28;20037;-62
2021/03/10 01:37:57;;;;;;;18.88;6.07;;;2.40;61.30;;;;;;5053728;28;20048;-63
2021/03/10 01:40:24;;;;;;;17.08;6.10;;;2.30;61.40;;;;;;5048208;28;20102;-62
2021/03/10 01:42:51;;;;;;;12.00;5.50;;;2.30;61.70;;;;;;5068910;28;20040;-63
2021/03/10 01:45:18;;;;;;;20.23;6.75;;;2.30;61.90;;;;;;5072652;28;20040;-62
2021/03/10 01:47:46;;;;;;;13.18;5.72;;;2.30;62.10;;;;;;5053992;28;20036;-62
2021/03/10 01:50:19;;;;;;;17.38;6.75;;;2.20;62.10;;;;;;5069105;28;20147;-62
2021/03/10 01:52:46;;;;;;;16.48;6.60;;;2.20;62.20;;;;;;5056587;28;20055;-62
2021/03/10 01:55:13;;;;;;;18.80;6.00;;;2.20;62.90;;;;;;5071742;28;20041;-62
2021/03/10 01:57:40;;;;;;;24.60;7.15;;;2.20;62.80;;;;;;5070792;28;20048;-62
2021/03/10 02:00:09;;;;;;;17.80;6.88;;;2.10;62.80;;;;;;5062787;28;20487;-62
2021/03/10 02:02:39;;;;;;;17.35;6.78;;;2.10;62.80;;;;;;5061438;28;20123;-62
2021/03/10 02:05:07;;;;;;;21.13;7.15;;;2.10;63.00;;;;;;5073381;28;20040;-62
2021/03/10 02:07:50;;;;;;;12.55;6.20;;;2.10;63.10;;;;;;5080836;28;20040;-62
2021/03/10 02:10:39;;;;;;;18.40;7.40;;;2.10;63.20;;;;;;5071504;28;20032;-62
2021/03/10 02:17:06;;;;;;;17.42;6.82;;;2.00;63.40;;;;;;5072575;28;20112;-62
2021/03/10 02:20:06;;;;;;;16.95;7.03;;;2.00;63.60;;;;;;5075866;28;20064;-62
2021/03/10 02:22:55;;;;;;;22.40;6.78;;;1.90;63.80;;;;;;5058953;28;20059;-62
2021/03/10 02:25:51;;;;;;;22.10;7.63;;;1.90;64.10;;;;;;5071733;28;20098;-62
2021/03/10 02:28:18;;;;;;;16.17;6.50;;;1.90;64.10;;;;;;5071629;28;20441;-61
2021/03/10 02:30:49;;;;;;;19.25;7.30;;;1.90;64.20;;;;;;5065344;28;20067;-62
2021/03/10 02:33:26;;;;;;;15.77;6.60;;;1.80;64.30;;;;;;5057843;28;20062;-63
2021/03/10 02:36:08;;;;;;;20.40;7.18;;;1.80;64.90;;;;;;5074462;28;20047;-62
2021/03/10 02:38:38;;;;;;;19.05;6.72;;;1.70;63.90;;;;;;5053238;28;20045;-62
2021/03/10 02:41:06;;;;;;;20.20;8.20;;;1.70;64.60;;;;;;5060301;28;20059;-62
2021/03/10 02:43:34;;;;;;;21.08;6.90;;;1.70;65.10;;;;;;5072065;28;20404;-62
2021/03/10 02:46:03;;;;;;;15.93;6.05;;;1.60;64.70;;;;;;5070188;28;20089;-62
2021/03/10 02:48:30;;;;;;;17.38;6.88;;;1.60;65.00;;;;;;5070862;28;20041;-62
2021/03/10 02:50:58;;;;;;;17.98;6.40;;;1.50;65.00;;;;;;5069306;28;20148;-62
2021/03/10 02:53:25;;;;;;;20.10;6.93;;;1.50;64.40;;;;;;5077253;28;20032;-62
2021/03/10 02:55:52;;;;;;;19.60;7.03;;;1.50;65.60;;;;;;5037853;28;20049;-62
2021/03/10 02:58:18;;;;;;;17.58;7.38;;;1.50;65.80;;;;;;5069066;28;20553;-62
2021/03/10 03:00:45;;;;;;;17.75;7.07;;;1.50;65.50;;;;;;5071777;28;20032;-62
2021/03/10 03:03:12;;;;;;;20.60;7.78;;;1.40;65.30;;;;;;5048753;28;20029;-63
2021/03/10 03:05:38;;;;;;;18.17;6.18;;;1.50;65.70;;;;;;5073913;28;20665;-63
2021/03/10 03:08:06;;;;;;;18.75;7.05;;;1.40;65.80;;;;;;5054551;28;20458;-62
2021/03/10 03:10:37;;;;;;;18.83;6.70;;;1.40;65.40;;;;;;5075852;28;20040;-62
2021/03/10 03:13:08;;;;;;;17.02;6.75;;;1.40;65.60;;;;;;5058739;28;20056;-62
2021/03/10 03:15:35;;;;;;;15.43;5.78;;;1.30;65.10;;;;;;5080899;28;20048;-62
2021/03/10 03:18:03;;;;;;;17.70;6.40;;;1.30;65.60;;;;;;5070768;28;20045;-62
2021/03/10 03:20:30;;;;;;;15.15;6.43;;;1.30;66.00;;;;;;5074621;28;20036;-62
2021/03/10 03:22:58;;;;;;;28.50;7.50;;;1.30;66.10;;;;;;5075008;28;20056;-62
2021/03/10 03:25:27;;;;;;;16.55;6.20;;;1.20;66.50;;;;;;5063983;28;20051;-62
2021/03/10 03:27:57;;;;;;;16.27;5.65;;;1.20;66.80;;;;;;5074012;28;20071;-62
2021/03/10 03:30:31;;;;;;;15.48;6.65;;;1.20;66.50;;;;;;5068364;28;20037;-62
2021/03/10 03:32:59;;;;;;;16.23;5.75;;;1.20;66.80;;;;;;5074328;28;20431;-62
2021/03/10 03:35:26;;;;;;;16.23;6.57;;;1.20;67.70;;;;;;5065150;28;20093;-62
2021/03/10 03:37:54;;;;;;;19.60;6.72;;;1.20;68.10;;;;;;5069461;28;20041;-63
2021/03/10 03:40:22;;;;;;;11.70;6.32;;;1.20;68.30;;;;;;5028355;28;636145;-63
2021/03/10 03:42:51;;;;;;;16.65;6.63;;;1.20;67.90;;;;;;5069805;28;20063;-62
2021/03/10 03:45:20;;;;;;;17.92;6.90;;;1.10;67.30;;;;;;5055861;28;20059;-62
2021/03/10 03:47:54;;;;;;;15.10;6.43;;;1.20;67.60;;;;;;5070543;28;20079;-62
2021/03/10 03:50:23;;;;;;;18.70;6.65;;;1.20;67.60;;;;;;5069272;28;20063;-62
2021/03/10 03:52:51;;;;;;;16.92;7.22;;;1.20;67.30;;;;;;5054383;28;20462;-62
2021/03/10 03:55:17;;;;;;;19.60;6.47;;;1.20;66.80;;;;;;5050977;28;20094;-62
2021/03/10 03:57:44;;;;;;;16.45;6.32;;;1.30;66.40;;;;;;5049305;28;20055;-62
2021/03/10 04:00:20;;;;;;;16.50;6.80;;;1.30;68.10;;;;;;5070403;28;20049;-63
2021/03/10 04:02:47;;;;;;;20.33;7.20;;;1.30;67.40;;;;;;5073276;28;20540;-62
2021/03/10 04:05:15;;;;;;;17.02;6.18;;;1.30;68.40;;;;;;5049678;28;20036;-63
2021/03/10 04:07:59;;;;;;;15.50;6.60;;;1.30;68.90;;;;;;5041266;28;20102;-62
2021/03/10 04:10:31;;;;;;;15.20;7.40;;;1.30;69.70;;;;;;5069174;28;20043;-62
2021/03/10 04:12:59;;;;;;;18.65;7.35;;;1.30;68.90;;;;;;5070967;28;20040;-63
2021/03/10 04:15:26;;;;;;;20.77;7.38;;;1.30;69.20;;;;;;5073418;28;20082;-62
2021/03/10 04:17:53;;;;;;;16.20;6.50;;;1.30;68.70;;;;;;5055877;28;20052;-62
2021/03/10 04:20:21;;;;;;;17.50;7.18;;;1.40;68.20;;;;;;5071043;28;20028;-62
2021/03/10 04:22:49;;;;;;;20.25;7.72;;;1.30;68.20;;;;;;5073431;28;20102;-62
2021/03/10 04:25:16;;;;;;;20.92;7.88;;;1.30;68.20;;;;;;5069959;28;20040;-62
2021/03/10 04:27:43;;;;;;;17.98;7.07;;;1.20;67.60;;;;;;5068635;28;20041;-62
2021/03/10 04:30:12;;;;;;;24.67;8.98;;;1.30;68.50;;;;;;5072099;28;20055;-62
2021/03/10 04:32:39;;;;;;;21.55;8.23;;;1.30;68.20;;;;;;5071283;28;20059;-62
2021/03/10 04:35:07;;;;;;;21.58;7.95;;;1.30;68.20;;;;;;5051900;28;20044;-62
2021/03/10 04:37:34;;;;;;;18.42;7.57;;;1.30;68.30;;;;;;5074373;28;20048;-62
2021/03/10 04:40:01;;;;;;;18.40;7.35;;;1.40;68.60;;;;;;5072106;28;20078;-62
2021/03/10 04:42:27;;;;;;;24.00;7.82;;;1.40;68.60;;;;;;5053835;28;20495;-62
2021/03/10 04:44:54;;;;;;;25.90;9.20;;;1.40;68.60;;;;;;5075148;28;20051;-63
2021/03/10 04:47:20;;;;;;;21.00;8.30;;;1.40;68.80;;;;;;5048092;28;20040;-62
2021/03/10 04:49:47;;;;;;;26.13;9.18;;;1.40;68.90;;;;;;5048838;28;20048;-62
2021/03/10 04:52:18;;;;;;;23.67;9.23;;;1.40;69.50;;;;;;5073336;28;20048;-62
2021/03/10 04:54:45;;;;;;;24.52;8.75;;;1.40;69.10;;;;;;5049030;28;20044;-62
2021/03/10 04:57:11;;;;;;;28.42;9.80;;;1.40;69.40;;;;;;5057662;28;20044;-62
2021/03/10 04:59:38;;;;;;;25.35;9.68;;;1.40;69.20;;;;;;5068200;28;20040;-61
2021/03/10 05:02:04;;;;;;;28.73;8.48;;;1.40;69.50;;;;;;5050522;28;20045;-61
2021/03/10 05:04:31;;;;;;;30.23;8.85;;;1.40;68.20;;;;;;5068291;28;20710;-64
2021/03/10 05:06:59;;;;;;;27.15;8.95;;;1.40;68.10;;;;;;5070607;28;20040;-62
2021/03/10 05:09:25;;;;;;;32.35;11.38;;;1.40;67.90;;;;;;5076381;28;20054;-62
2021/03/10 05:11:52;;;;;;;105.47;30.45;;;1.40;68.10;;;;;;5054346;28;20055;-62
2021/03/10 05:14:18;;;;;;;77.15;23.92;;;1.40;67.90;;;;;;5082230;28;20048;-62
2021/03/10 05:16:44;;;;;;;52.17;19.20;;;1.40;67.80;;;;;;5071364;28;20044;-62
2021/03/10 05:19:11;;;;;;;44.65;16.73;;;1.40;67.70;;;;;;5080834;28;20075;-62
2021/03/10 05:21:38;;;;;;;32.80;13.70;;;1.50;67.80;;;;;;5048545;28;21934;-62
2021/03/10 05:24:05;;;;;;;28.67;12.38;;;1.50;67.80;;;;;;5044211;28;20446;-62
2021/03/10 05:26:31;;;;;;;25.20;9.95;;;1.40;67.60;;;;;;5064329;28;20059;-62
2021/03/10 05:28:58;;;;;;;16.20;7.53;;;1.50;67.70;;;;;;5066919;28;20049;-62
2021/03/10 05:31:24;;;;;;;17.50;7.43;;;1.40;67.90;;;;;;5048422;28;20048;-62
2021/03/10 05:33:51;;;;;;;14.98;7.15;;;1.40;67.80;;;;;;5072775;28;20044;-62
2021/03/10 05:36:21;;;;;;;22.00;8.75;;;1.40;67.60;;;;;;5053090;28;20035;-63
2021/03/10 05:38:51;;;;;;;21.00;8.23;;;1.40;68.00;;;;;;5074378;28;20502;-62
2021/03/10 05:41:17;;;;;;;34.10;12.63;;;1.40;69.00;;;;;;5073527;28;20053;-62
2021/03/10 05:43:44;;;;;;;21.70;9.63;;;1.30;69.20;;;;;;5066334;28;20044;-63
2021/03/10 05:46:11;;;;;;;22.60;7.55;;;1.30;69.70;;;;;;5065612;28;20052;-61
2021/03/10 05:48:39;;;;;;;23.40;7.07;;;1.30;69.40;;;;;;5079207;28;20043;-62
2021/03/10 05:51:07;;;;;;;21.33;7.43;;;1.30;69.00;;;;;;5070153;28;20124;-62
2021/03/10 05:53:41;;;;;;;25.30;8.80;;;1.30;69.10;;;;;;5032200;28;20053;-63
2021/03/10 05:56:08;;;;;;;19.20;7.85;;;1.30;69.50;;;;;;5072633;28;20056;-62
2021/03/10 05:58:35;;;;;;;21.23;7.00;;;1.30;69.30;;;;;;5059701;28;20055;-62
2021/03/10 06:01:01;;;;;;;19.67;9.13;;;1.30;70.00;;;;;;5056702;28;20570;-62
2021/03/10 06:03:28;;;;;;;37.90;12.90;;;1.30;70.00;;;;;;5037119;28;20049;-62
2021/03/10 06:06:04;;;;;;;24.70;10.70;;;1.30;69.20;;;;;;5072652;28;20043;-61
2021/03/10 06:08:33;;;;;;;32.90;12.90;;;1.30;69.20;;;;;;5083625;28;20122;-62
2021/03/10 06:11:01;;;;;;;39.40;15.93;;;1.30;69.20;;;;;;5058971;28;20051;-62
2021/03/10 06:13:29;;;;;;;35.50;15.27;;;1.30;69.30;;;;;;5050792;28;20044;-62
2021/03/10 06:15:58;;;;;;;52.65;18.00;;;1.30;68.60;;;;;;5069402;28;20117;-62
2021/03/10 06:18:33;;;;;;;50.28;17.45;;;1.30;68.80;;;;;;5050854;28;20427;-63
2021/03/10 06:21:05;;;;;;;34.15;12.85;;;1.20;68.90;;;;;;5076897;28;20044;-62
2021/03/10 06:23:34;;;;;;;29.00;10.77;;;1.20;69.40;;;;;;5072214;28;20111;-62
2021/03/10 06:26:01;;;;;;;28.52;10.63;;;1.20;69.90;;;;;;5069385;28;20024;-62
2021/03/10 06:28:38;;;;;;;22.90;8.88;;;1.30;70.90;;;;;;5076216;28;20044;-62
2021/03/10 06:31:26;;;;;;;18.80;7.68;;;1.30;71.30;;;;;;5071440;28;20040;-62
2021/03/10 06:34:09;;;;;;;22.38;7.55;;;1.30;71.40;;;;;;5078890;28;20044;-62
2021/03/10 06:36:48;;;;;;;41.38;12.80;;;1.40;70.20;;;;;;5060685;28;20044;-62
2021/03/10 06:39:28;;;;;;;25.15;8.93;;;1.40;70.40;;;;;;5047345;28;20052;-64
2021/03/10 06:41:55;;;;;;;25.88;9.07;;;1.40;68.90;;;;;;5055010;28;20060;-62
2021/03/10 06:44:22;;;;;;;29.25;10.57;;;1.50;67.80;;;;;;5051399;28;20048;-63
2021/03/10 06:46:53;;;;;;;24.95;8.38;;;1.60;68.60;;;;;;5072503;28;20534;-62
2021/03/10 06:49:21;;;;;;;17.83;7.05;;;1.60;67.90;;;;;;5063812;28;20048;-62
2021/03/10 06:51:51;;;;;;;15.93;6.30;;;1.70;66.20;;;;;;5069968;28;20036;-62
2021/03/10 06:54:18;;;;;;;15.07;5.90;;;1.70;65.70;;;;;;5058976;28;20052;-62
2021/03/10 06:56:45;;;;;;;12.95;4.90;;;1.80;64.00;;;;;;5070809;28;20430;-62
2021/03/10 06:59:11;;;;;;;12.88;4.85;;;1.90;62.40;;;;;;5080066;28;20074;-62
2021/03/10 07:01:43;;;;;;;11.35;4.93;;;2.00;62.00;;;;;;5067663;28;20052;-62
2021/03/10 07:04:13;;;;;;;16.23;6.50;;;2.10;62.30;;;;;;5076430;28;20048;-62
2021/03/10 07:06:40;;;;;;;18.00;7.65;;;2.20;61.50;;;;;;5081129;28;20043;-62
2021/03/10 07:09:10;;;;;;;16.85;6.38;;;2.20;61.20;;;;;;5048252;28;20040;-62
2021/03/10 07:11:37;;;;;;;13.07;5.95;;;2.30;61.10;;;;;;5045696;28;20048;-61
2021/03/10 07:14:04;;;;;;;17.58;6.07;;;2.40;61.40;;;;;;5065333;28;20049;-62
2021/03/10 07:16:32;;;;;;;16.33;6.82;;;2.50;61.10;;;;;;5049552;28;20131;-62
2021/03/10 07:19:09;;;;;;;12.02;5.28;;;2.60;60.30;;;;;;5045914;28;20067;-61
2021/03/10 07:21:50;;;;;;;12.20;4.95;;;2.60;60.10;;;;;;5067475;28;20041;-63
2021/03/10 07:24:21;;;;;;;10.63;4.20;;;2.70;59.80;;;;;;5044311;28;20055;-62
2021/03/10 07:26:49;;;;;;;15.43;4.45;;;2.80;59.30;;;;;;5044573;28;20040;-62
2021/03/10 07:29:17;;;;;;;9.25;4.50;;;2.90;59.30;;;;;;5056987;28;20040;-62
2021/03/10 07:31:44;;;;;;;13.10;4.03;;;2.90;59.50;;;;;;5073525;28;20044;-62
2021/03/10 07:34:11;;;;;;;11.52;4.57;;;3.00;58.70;;;;;;5054835;28;20158;-62
2021/03/10 07:36:40;;;;;;;13.65;5.00;;;3.10;59.10;;;;;;5049578;28;20028;-62
2021/03/10 07:39:32;;;;;;;14.05;4.70;;;3.10;58.70;;;;;;5051908;28;20086;-62
2021/03/10 07:42:15;;;;;;;13.27;4.60;;;3.20;59.50;;;;;;5048719;28;20080;-62
2021/03/10 07:44:58;;;;;;;10.43;3.72;;;3.20;58.90;;;;;;5048130;28;20113;-62
2021/03/10 07:47:24;;;;;;;9.38;3.75;;;3.30;58.70;;;;;;5067629;28;20056;-61
2021/03/10 07:50:01;;;;;;;8.55;3.95;;;3.30;58.70;;;;;;5064795;28;20957;-62
2021/03/10 07:52:29;;;;;;;10.38;3.90;;;3.40;57.10;;;;;;5083303;28;20093;-62
2021/03/10 07:54:58;;;;;;;10.40;3.55;;;3.40;58.10;;;;;;5052348;28;20137;-61
2021/03/10 07:57:25;;;;;;;10.82;3.85;;;3.40;57.60;;;;;;5066027;28;20045;-61
2021/03/10 07:59:53;;;;;;;12.55;4.80;;;3.40;57.30;;;;;;5062990;28;20052;-62
2021/03/10 08:02:20;;;;;;;10.15;3.95;;;3.40;57.30;;;;;;5052655;28;20499;-61
2021/03/10 08:05:02;;;;;;;6.80;3.13;;;3.50;56.20;;;;;;5069074;28;20033;-62
2021/03/10 08:07:31;;;;;;;11.00;4.00;;;3.50;56.20;;;;;;5033318;28;20084;-62
2021/03/10 08:09:58;;;;;;;10.27;4.47;;;3.50;56.70;;;;;;5056538;28;20106;-62
2021/03/10 08:12:36;;;;;;;6.45;2.95;;;3.50;56.90;;;;;;5064093;28;20097;-62
2021/03/10 08:15:05;;;;;;;12.43;4.68;;;3.60;56.30;;;;;;5062482;28;20045;-61
2021/03/10 08:17:31;;;;;;;19.55;7.35;;;3.40;55.50;;;;;;5060819;28;20059;-62
2021/03/10 08:20:01;;;;;;;8.02;3.58;;;3.50;56.60;;;;;;5046799;28;20093;-62
2021/03/10 08:22:29;;;;;;;8.93;3.10;;;3.60;56.30;;;;;;5046919;28;20402;-62
2021/03/10 08:25:01;;;;;;;8.88;2.83;;;3.70;54.80;;;;;;5047049;28;20048;-62
2021/03/10 08:27:32;;;;;;;9.32;3.10;;;3.70;54.50;;;;;;5046112;28;20040;-62
2021/03/10 08:29:59;;;;;;;8.27;3.90;;;3.80;54.70;;;;;;5065840;28;20487;-62
2021/03/10 08:32:28;;;;;;;9.55;3.60;;;4.00;54.40;;;;;;5054486;28;20063;-62
2021/03/10 08:34:59;;;;;;;9.23;4.35;;;4.00;53.70;;;;;;5064875;28;20624;-62
2021/03/10 08:37:27;;;;;;;10.25;3.95;;;4.10;54.20;;;;;;5061392;28;20036;-62
2021/03/10 08:39:54;;;;;;;11.23;4.10;;;4.20;53.80;;;;;;5066677;28;20570;-62
2021/03/10 08:42:22;;;;;;;10.02;4.00;;;4.20;53.90;;;;;;5029590;28;20044;-62
2021/03/10 08:44:50;;;;;;;8.00;3.38;;;4.10;54.30;;;;;;5010358;28;20048;-62
2021/03/10 08:47:25;;;;;;;10.35;3.33;;;4.20;54.30;;;;;;5028188;28;20118;-61
2021/03/10 08:49:59;;;;;;;7.07;2.97;;;4.30;53.90;;;;;;5022809;28;20057;-62
2021/03/10 08:52:28;;;;;;;9.68;3.53;;;4.40;52.60;;;;;;5029165;28;20056;-63
2021/03/10 08:55:00;;;;;;;9.15;3.00;;;4.40;53.20;;;;;;5025350;28;20156;-62
2021/03/10 08:57:30;;;;;;;12.63;3.83;;;4.60;53.20;;;;;;5044040;28;20041;-63
2021/03/10 08:59:58;;;;;;;14.55;5.18;;;4.70;52.90;;;;;;5007857;28;20052;-61
2021/03/10 09:02:34;;;;;;;9.43;3.70;;;4.80;52.60;;;;;;5037470;28;20045;-62
2021/03/10 09:05:05;;;;;;;9.05;4.22;;;4.90;52.60;;;;;;5019280;28;20165;-61
2021/03/10 09:07:34;;;;;;;13.25;3.83;;;5.10;52.00;;;;;;5033029;28;20111;-62
2021/03/10 09:10:11;;;;;;;12.60;4.28;;;5.20;52.00;;;;;;5027186;28;20052;-62
2021/03/10 09:12:43;;;;;;;8.35;4.05;;;5.20;52.10;;;;;;5019235;28;20053;-62
2021/03/10 09:15:17;;;;;;;11.13;4.80;;;5.30;51.80;;;;;;5020365;28;20134;-63
2021/03/10 09:17:45;;;;;;;9.18;3.97;;;5.50;52.00;;;;;;5026511;28;20051;-62
2021/03/10 09:20:24;;;;;;;9.40;3.25;;;5.60;52.30;;;;;;5002102;28;20051;-63
2021/03/10 09:22:55;;;;;;;9.82;4.03;;;5.80;51.40;;;;;;5016949;28;20064;-64
2021/03/10 09:25:33;;;;;;;12.18;3.80;;;5.90;50.70;;;;;;5025071;28;20047;-63
2021/03/10 09:28:09;;;;;;;8.57;3.50;;;6.00;50.70;;;;;;5023217;28;20049;-64
2021/03/10 09:30:58;;;;;;;10.23;3.88;;;6.20;51.30;;;;;;5036426;28;20049;-64
2021/03/10 09:33:29;;;;;;;6.95;3.10;;;6.30;49.50;;;;;;5020009;28;20056;-64
2021/03/10 09:36:02;;;;;;;10.00;3.83;;;6.50;49.30;;;;;;5038274;28;20062;-63
2021/03/10 09:38:34;;;;;;;10.88;3.72;;;6.40;47.80;;;;;;5015269;28;20042;-63
2021/03/10 09:41:08;;;;;;;12.48;4.93;;;6.50;48.20;;;;;;5018069;28;20132;-64
2021/03/10 09:43:38;;;;;;;8.00;3.63;;;6.60;48.70;;;;;;5037793;28;20048;-63
2021/03/10 09:46:10;;;;;;;10.45;3.65;;;6.80;47.80;;;;;;5040602;28;20102;-63
2021/03/10 09:48:41;;;;;;;10.48;4.53;;;6.80;48.20;;;;;;5045114;28;20864;-62
2021/03/10 09:51:16;;;;;;;10.25;4.15;;;6.90;47.30;;;;;;5042773;28;20048;-62
2021/03/10 09:53:51;;;;;;;10.73;4.57;;;7.00;47.10;;;;;;5023168;28;20052;-62
2021/03/10 09:56:29;;;;;;;9.57;3.78;;;7.10;47.40;;;;;;5043487;28;20075;-62
2021/03/10 09:59:06;;;;;;;;;;;7.30;46.90;;;;;;5056527;28;20072;-62
2021/03/10 10:01:49;;;;;;;19.48;4.88;;;7.40;46.50;;;;;;5063851;28;20015;-61
2021/03/10 10:04:28;;;;;;;14.88;5.80;;;7.40;46.80;;;;;;5056487;28;20575;-61
2021/03/10 10:06:57;;;;;;;15.68;4.95;;;7.40;47.00;;;;;;5044569;28;20048;-62
2021/03/10 10:09:30;;;;;;;13.57;4.25;;;7.40;48.40;;;;;;5042067;28;20437;-62
2021/03/10 10:12:02;;;;;;;12.23;5.00;;;7.60;48.70;;;;;;5036222;28;20099;-61
2021/03/10 10:14:45;;;;;;;13.02;5.50;;;7.80;47.80;;;;;;5042102;28;20061;-63
2021/03/10 10:17:16;;;;;;;10.38;4.40;;;7.80;48.20;;;;;;5038465;28;20040;-62
2021/03/10 10:19:44;;;;;;;12.48;5.53;;;8.00;47.20;;;;;;5046074;28;20060;-63
2021/03/10 10:22:11;;;;;;;17.10;5.47;;;8.20;46.30;;;;;;5045351;28;20037;-63
2021/03/10 10:24:38;;;;;;;11.93;5.30;;;8.30;45.80;;;;;;5046744;28;20037;-63
2021/03/10 10:27:08;;;;;;;10.63;5.47;;;8.50;46.30;;;;;;5029191;28;20131;-63
2021/03/10 10:29:35;;;;;;;13.02;5.35;;;8.60;46.60;;;;;;5041408;28;20878;-64
2021/03/10 10:32:04;;;;;;;12.63;4.93;;;8.80;46.90;;;;;;5045086;28;20105;-62
2021/03/10 10:34:32;;;;;;;13.35;5.13;;;9.00;45.20;;;;;;5064553;28;20538;-64
2021/03/10 10:37:02;;;;;;;14.63;5.88;;;9.20;44.90;;;;;;5028977;28;20040;-63
2021/03/10 10:39:45;;;;;;;14.00;6.22;;;9.20;44.20;;;;;;5043436;28;20040;-63
2021/03/10 10:42:15;;;;;;;12.57;6.03;;;9.00;44.80;;;;;;5056247;28;20484;-63
2021/03/10 10:44:43;;;;;;;15.35;5.13;;;9.20;44.90;;;;;;5035048;28;20044;-64
2021/03/10 10:47:12;;;;;;;14.15;5.43;;;9.00;44.10;;;;;;5065350;28;20044;-63
2021/03/10 10:49:54;;;;;;;14.23;6.40;;;8.80;44.80;;;;;;5037222;28;20241;-64
2021/03/10 10:52:21;;;;;;;13.63;5.40;;;8.60;45.80;;;;;;5046713;28;20056;-62
2021/03/10 10:54:48;;;;;;;16.83;6.25;;;8.80;46.30;;;;;;5048137;28;20036;-61
2021/03/10 10:57:15;;;;;;;13.68;5.80;;;8.90;47.10;;;;;;5068892;28;20136;-62
2021/03/10 10:59:56;;;;;;;15.85;7.03;;;9.10;46.60;;;;;;5046352;28;20041;-63
2021/03/10 11:02:38;;;;;;;16.73;6.72;;;9.20;45.20;;;;;;5005314;28;20045;-65
2021/03/10 11:05:13;;;;;;;11.13;5.90;;;9.20;44.80;;;;;;5044712;28;20058;-63
2021/03/10 11:07:42;;;;;;;15.45;6.07;;;9.20;46.10;;;;;;5046580;28;20057;-64
2021/03/10 11:10:09;;;;;;;14.18;6.00;;;9.20;44.80;;;;;;5068337;28;20041;-64
2021/03/10 11:12:42;;;;;;;13.45;4.80;;;9.30;45.80;;;;;;5069962;28;20043;-63
2021/03/10 11:15:09;;;;;;;15.30;6.70;;;9.40;46.20;;;;;;5050355;28;20414;-64
2021/03/10 11:17:43;;;;;;;13.43;6.03;;;9.40;45.50;;;;;;5048479;28;20052;-62
2021/03/10 11:20:14;;;;;;;14.80;6.13;;;9.30;46.60;;;;;;5049336;28;20102;-62
2021/03/10 11:22:41;;;;;;;13.15;6.60;;;9.50;46.70;;;;;;5036224;28;20049;-62
2021/03/10 11:25:11;;;;;;;14.82;6.28;;;9.70;46.10;;;;;;5039166;28;20059;-63
2021/03/10 11:27:39;;;;;;;13.18;7.00;;;9.90;46.40;;;;;;5043179;28;20040;-62
2021/03/10 11:30:10;;;;;;;14.18;6.50;;;10.20;44.60;;;;;;5064532;28;21261;-63
2021/03/10 11:32:41;;;;;;;12.50;5.90;;;10.30;43.30;;;;;;5051792;28;20048;-63
2021/03/10 11:35:09;;;;;;;14.75;7.03;;;10.30;44.00;;;;;;5048584;28;20049;-62
2021/03/10 11:37:36;;;;;;;34.45;11.68;;;10.50;43.40;;;;;;5045404;28;20094;-62
2021/03/10 11:40:24;;;;;;;25.95;9.98;;;10.60;42.50;;;;;;5042462;28;20052;-63
2021/03/10 11:42:50;;;;;;;13.88;6.40;;;10.50;41.60;;;;;;5066522;28;20051;-63
2021/03/10 11:45:17;;;;;;;22.73;9.65;;;10.70;42.40;;;;;;5048092;28;20059;-63
2021/03/10 11:47:44;;;;;;;17.15;6.28;;;10.90;41.20;;;;;;5063260;28;20071;-63
2021/03/10 11:50:11;;;;;;;16.60;6.78;;;11.20;39.70;;;;;;5050612;28;20041;-63
2021/03/10 11:52:38;;;;;;;15.65;7.05;;;11.40;40.00;;;;;;5065297;28;20048;-64
2021/03/10 11:55:05;;;;;;;15.18;6.63;;;11.50;39.00;;;;;;5061829;28;20052;-63
2021/03/10 11:57:32;;;;;;;14.38;5.75;;;11.20;39.60;;;;;;5059121;28;20128;-63
2021/03/10 12:00:01;;;;;;;14.02;6.10;;;11.00;39.50;;;;;;5044340;28;20412;-62
2021/03/10 12:02:39;;;;;;;14.45;5.53;;;10.90;40.00;;;;;;5062479;28;20565;-64
2021/03/10 12:05:13;;;;;;;14.00;5.75;;;11.00;39.90;;;;;;5049424;28;20384;-64
2021/03/10 12:07:39;;;;;;;11.82;5.72;;;11.10;38.80;;;;;;5044473;28;20033;-64
2021/03/10 12:10:06;;;;;;;14.70;5.85;;;11.10;39.20;;;;;;5063435;28;20376;-63
2021/03/10 12:12:32;;;;;;;13.95;5.57;;;11.20;38.40;;;;;;5062445;28;20052;-64
2021/03/10 12:15:06;;;;;;;12.70;5.97;;;11.10;38.20;;;;;;5046268;28;20044;-63
2021/03/10 12:17:33;;;;;;;12.65;5.50;;;11.10;38.40;;;;;;5045526;28;20553;-64
2021/03/10 12:20:00;;;;;;;14.13;6.50;;;11.00;38.10;;;;;;5064352;28;20048;-64
2021/03/10 12:22:26;;;;;;;11.80;5.35;;;11.00;38.60;;;;;;5074032;28;20051;-64
2021/03/10 12:24:53;;;;;;;13.30;6.07;;;11.00;37.00;;;;;;5043355;28;20044;-63
2021/03/10 12:27:25;;;;;;;11.07;5.05;;;11.00;37.30;;;;;;5044048;28;20562;-63
2021/03/10 12:29:53;;;;;;;10.52;5.60;;;11.00;37.60;;;;;;5062549;28;20123;-64
2021/03/10 12:32:26;;;;;;;12.55;5.68;;;11.00;37.20;;;;;;5046383;28;20041;-63
2021/03/10 12:34:54;;;;;;;14.70;5.45;;;10.60;37.30;;;;;;5044424;28;20061;-63
2021/03/10 12:37:20;;;;;;;12.38;5.75;;;10.40;37.80;;;;;;5068252;28;20032;-63
2021/03/10 12:39:47;;;;;;;15.05;5.80;;;10.50;38.50;;;;;;5047438;28;20041;-64
2021/03/10 12:42:14;;;;;;;11.65;5.43;;;10.90;38.30;;;;;;5066557;28;20056;-63
2021/03/10 12:44:43;;;;;;;14.95;6.65;;;11.10;37.10;;;;;;5064774;28;20057;-63
2021/03/10 12:47:11;;;;;;;14.13;5.97;;;11.50;37.80;;;;;;5064973;28;20143;-63
2021/03/10 12:49:39;;;;;;;12.25;5.40;;;12.00;37.40;;;;;;5068445;28;20123;-63
2021/03/10 12:52:06;;;;;;;12.65;6.03;;;12.70;35.80;;;;;;5050539;28;20040;-63
2021/03/10 12:54:33;;;;;;;14.27;6.13;;;13.10;34.00;;;;;;5069207;28;20045;-63
2021/03/10 12:56:59;;;;;;;14.15;5.72;;;13.30;33.90;;;;;;5071861;28;20124;-64
2021/03/10 12:59:29;;;;;;;12.63;5.82;;;13.40;33.10;;;;;;5066217;28;20041;-65
2021/03/10 13:01:56;;;;;;;12.57;6.20;;;13.00;34.20;;;;;;5067166;28;20040;-65
2021/03/10 13:04:22;;;;;;;82.20;47.42;;;13.00;33.80;;;;;;5061729;28;20097;-65